M I D A S
Marine Information and Data Acquisition System
Tripno 662 of the Zeeleeuw from 2004-03-08 09:01:07 to 2004-03-08 14:46:37
Back to CruiseResearch ActivitiesStationsMapUnderway DataData graphs

EquipmentUnitsComment
TimeDGPSUTC
LatitudeDGPSDM.mWGS84
LongitudeDGPSDM.mWGS84
TemperatureSBE03/SBE38deg celciusITS90
ConductivitySBE21S/mITS90
SalinitySBE21 Practical Salinity Units
ChlorophylAChelsea fluorimeterg/lCalibrated in Aceton
Missing or incorrect values are displayed as -999
Sea surface data collected by the RV Zeeleeuw from 2004-03-08 09:01:07 to 2004-03-08 14:46:37
Time Latitude Longitude Temperature Conductivity Salinity ChlorophylA
2004-03-08 09:02:10 51°13.957 2°55.538 12.277946 4.247297 31.358843 -0.848668
2004-03-08 09:03:09 51°14.062 2°55.46 12.314951 4.246981 31.360026 -0.882377
2004-03-08 09:04:09 51°14.181 2°55.365 12.338764 4.246664 31.361209 -0.882377
2004-03-08 09:05:09 51°14.295 2°55.193 12.212175 4.246137 31.357946 -0.848668
2004-03-08 09:06:10 51°14.4 2°54.93 12.327085 4.245926 31.357832 -0.848668
2004-03-08 09:07:09 51°14.411 2°54.619 12.302633 4.245926 31.362165 -0.848668
2004-03-08 09:08:09 51°14.345 2°54.388 12.290314 4.24561 31.360641 -0.680121
2004-03-08 09:09:09 51°14.243 2°54.126 12.072256 4.245083 31.360086 -0.646411
2004-03-08 09:10:10 51°14.126 2°53.792 12.182373 4.244977 31.361925 -0.646411
2004-03-08 09:11:09 51°14.043 2°53.438 12.22061 4.244345 31.361043 -0.646411
2004-03-08 09:12:10 51°13.939 2°53.071 12.13853 4.244028 31.357893 -0.646411
2004-03-08 09:13:09 51°13.841 2°52.707 12.164494 4.243607 31.358207 -0.646411
2004-03-08 09:14:09 51°13.734 2°52.338 12.061258 4.243396 31.356468 -0.680121
2004-03-08 09:15:09 51°13.628 2°51.964 12.144659 4.243185 31.353103 -0.646411
2004-03-08 09:16:10 51°13.513 2°51.589 12.126724 4.242974 31.356241 -0.646411
2004-03-08 09:17:10 51°13.401 2°51.221 12.16463 4.242974 31.355699 -0.646411
2004-03-08 09:18:09 51°13.292 2°50.862 12.191945 4.242869 31.359707 -0.646411
2004-03-08 09:19:09 51°13.182 2°50.501 12.15578 4.242552 31.359266 -0.578993
2004-03-08 09:20:09 51°13.074 2°50.14 12.2007 4.242342 31.362406 -0.578993
2004-03-08 09:21:09 51°12.966 2°49.784 12.216574 4.242236 31.362079 -0.612702
2004-03-08 09:22:09 51°12.853 2°49.431 12.206415 4.242025 31.361966 -0.545283
2004-03-08 09:23:09 51°12.735 2°49.08 12.241193 4.24192 31.365435 -0.545283
2004-03-08 09:24:10 51°12.613 2°48.727 12.225779 4.241498 31.363581 -0.511574
2004-03-08 09:25:09 51°12.493 2°48.383 12.252344 4.241287 31.366181 -0.477864
2004-03-08 09:26:09 51°12.372 2°48.029 12.250032 4.240971 31.364656 -0.444155
2004-03-08 09:27:10 51°12.25 2°47.666 12.275047 4.240549 31.366058 -0.444155
2004-03-08 09:28:09 51°12.133 2°47.31 12.265622 4.240338 31.368117 -0.376736
2004-03-08 09:29:09 51°12.012 2°46.946 12.274412 4.240022 31.364962 -0.343027
2004-03-08 09:30:09 51°11.891 2°46.58 12.283292 4.240022 31.370934 -0.343027
2004-03-08 09:31:10 51°11.767 2°46.205 12.306347 4.2396 31.370166 -0.275608
2004-03-08 09:32:09 51°11.647 2°45.842 12.298286 4.239495 31.370925 -0.241899
2004-03-08 09:33:09 51°11.528 2°45.475 12.312868 4.239284 31.370812 -0.241899
2004-03-08 09:34:09 51°11.412 2°45.108 12.326406 4.239495 31.3769 -0.14077
2004-03-08 09:35:09 51°11.298 2°44.74 12.334328 4.239811 31.387123 -0.17448
2004-03-08 09:36:09 51°11.183 2°44.375 12.343698 4.241077 31.39649 -0.107061
2004-03-08 09:37:10 51°11.082 2°43.992 12.349944 4.242659 31.411191 -0.14077
2004-03-08 09:38:09 51°10.983 2°43.624 12.361619 4.243608 31.4223 -0.039642
2004-03-08 09:39:09 51°10.882 2°43.252 12.371799 4.244979 31.439076 -0.039642
2004-03-08 09:40:09 51°10.783 2°42.883 12.381118 4.247088 31.459781 -0.073352
2004-03-08 09:41:10 51°10.681 2°42.508 12.389848 4.244663 31.442454 -0.005933
2004-03-08 09:42:09 51°10.58 2°42.148 12.396723 4.242659 31.428614 -0.039642
2004-03-08 09:43:10 51°10.483 2°41.769 12.407756 4.240128 31.411502 -0.039642
2004-03-08 09:44:09 51°10.387 2°41.406 12.41802 4.240445 31.416841 -0.039642
2004-03-08 09:45:09 51°10.286 2°41.04 12.426293 4.238968 31.408446 -0.005933
2004-03-08 09:46:09 51°10.188 2°40.672 12.437774 4.237387 31.396456 -0.005933
2004-03-08 09:47:09 51°10.087 2°40.308 12.447039 4.236754 31.393401 -0.005933
2004-03-08 09:48:09 51°9.989 2°39.941 12.45585 4.23591 31.389147 -0.005933
2004-03-08 09:49:09 51°9.893 2°39.573 12.466287 4.235278 31.387726 -0.005933
2004-03-08 09:50:09 51°9.797 2°39.205 12.475593 4.23475 31.386632 0.027777
2004-03-08 09:51:10 51°9.699 2°38.832 12.484356 4.234329 31.385321 0.027777
2004-03-08 09:52:09 51°9.605 2°38.475 12.493072 4.23338 31.382371 -0.039642
2004-03-08 09:53:10 51°9.501 2°38.3 6.60261 4.116447 30.7325 -0.005933
2004-03-08 09:54:09 51°9.468 2°38.266 5.00884 3.091585 31.431895 6.870785
2004-03-08 09:55:09 51°9.458 2°38.232 4.934209 3.074217 31.566897 6.837076
2004-03-08 09:56:11 51°9.444 2°38.199 4.921161 3.03916 31.244227 7.073042
2004-03-08 09:57:10 51°9.428 2°38.17 4.914001 3.060952 31.525009 7.14046
2004-03-08 09:58:09 51°9.41 2°38.145 4.917657 3.062321 31.566247 7.17417
2004-03-08 09:59:10 51°9.39 2°38.122 4.916134 3.062742 31.568562 6.769657
2004-03-08 10:00:10 51°9.358 2°38.11 4.909126 3.052741 31.465337 6.803366
2004-03-08 10:01:10 51°9.262 2°38.037 4.931315 3.058005 31.538571 7.241589
2004-03-08 10:02:09 51°9.247 2°37.824 4.960195 3.050741 31.429348 6.938204
2004-03-08 10:03:09 51°9.354 2°37.722 4.898308 3.04095 31.323618 7.106751
2004-03-08 10:04:09 51°9.499 2°37.735 4.899781 3.064217 31.629342 7.443845
2004-03-08 10:05:10 51°9.675 2°37.736 4.902981 3.065901 31.650232 7.612392
2004-03-08 10:06:09 51°9.783 2°37.678 4.904504 3.069586 31.697295 6.938204
2004-03-08 10:07:10 51°9.828 2°37.585 4.890841 3.070323 31.707377 5.724665
2004-03-08 10:08:10 51°9.876 2°37.545 4.907348 3.059479 31.584404 5.387571
2004-03-08 10:09:09 51°9.893 2°37.586 4.925984 3.072113 31.711981 4.511127
2004-03-08 10:10:10 51°9.876 2°37.666 4.922481 3.08222 31.828219 4.612255
2004-03-08 10:11:09 51°9.859 2°37.757 4.925375 3.078009 31.778457 3.836939
2004-03-08 10:12:09 51°9.842 2°37.77 4.919892 3.083694 31.843381 3.634683
2004-03-08 10:13:09 51°9.824 2°37.759 4.908466 3.085694 31.879628 4.544836
2004-03-08 10:14:10 51°9.804 2°37.746 4.906942 3.087274 31.904383 5.117896
2004-03-08 10:15:10 51°9.784 2°37.734 4.901152 3.068323 31.692031 4.88193
2004-03-08 10:16:10 51°9.763 2°37.729 4.900289 3.079167 31.819264 4.949349
2004-03-08 10:17:10 51°9.741 2°37.733 4.894041 3.075903 31.786981 5.117896
2004-03-08 10:18:09 51°9.719 2°37.743 4.894041 3.083168 31.874211 5.387571
2004-03-08 10:19:09 51°9.697 2°37.757 4.904149 3.081167 31.848826 5.185315
2004-03-08 10:20:09 51°9.679 2°37.771 4.902473 3.072218 31.740699 5.016768
2004-03-08 10:21:09 51°9.667 2°37.784 4.901305 3.076009 31.785677 5.353862
2004-03-08 10:22:11 51°9.66 2°37.795 4.909075 3.071692 31.736353 4.949349
2004-03-08 10:23:09 51°9.662 2°37.806 4.906434 3.072218 31.73903 5.084187
2004-03-08 10:24:09 51°9.671 2°37.808 4.904555 3.069376 31.705723 5.084187
2004-03-08 10:25:10 51°9.688 2°37.786 4.89653 3.071271 31.734045 5.185315
2004-03-08 10:26:10 51°9.705 2°37.748 4.900543 3.071587 31.737654 5.353862
2004-03-08 10:27:09 51°9.725 2°37.703 4.904555 3.072534 31.747646 5.286443
2004-03-08 10:28:09 51°9.741 2°37.653 4.91197 3.074219 31.761049 5.016768
2004-03-08 10:29:09 51°9.747 2°37.602 4.924157 3.077377 31.783768 4.578546
2004-03-08 10:30:09 51°9.746 2°37.554 4.927457 3.080746 31.819745 4.544836
2004-03-08 10:31:10 51°9.742 2°37.51 4.927 3.083589 31.851382 4.612255
2004-03-08 10:32:09 51°9.736 2°37.471 4.931924 3.085168 31.869425 4.612255
2004-03-08 10:33:10 51°9.728 2°37.434 4.938118 3.086642 31.87789 4.477418
2004-03-08 10:34:09 51°9.722 2°37.387 4.933701 3.087695 31.89243 4.511127
2004-03-08 10:35:09 51°9.701 2°37.297 4.924664 3.087905 31.899026 4.477418
2004-03-08 10:36:11 51°9.654 2°37.231 4.934463 3.089063 31.913098 4.713383
2004-03-08 10:37:10 51°9.6 2°37.192 4.941468 3.089169 31.905079 4.174033
2004-03-08 10:38:09 51°9.541 2°37.14 4.927863 3.090116 31.919258 3.870648
2004-03-08 10:39:10 51°9.494 2°37.065 4.916489 3.085379 31.880208 4.511127
2004-03-08 10:40:10 51°9.462 2°36.985 4.911614 3.079588 31.819894 4.747093
2004-03-08 10:41:11 51°9.438 2°36.902 4.911614 3.079483 31.820364 4.645965
2004-03-08 10:42:09 51°9.422 2°36.824 4.918013 3.078746 31.809433 4.612255
2004-03-08 10:43:09 51°9.401 2°36.748 4.916439 3.078746 31.806089 4.612255
2004-03-08 10:44:09 51°9.374 2°36.68 4.925375 3.079167 31.808392 4.91564
2004-03-08 10:45:10 51°9.35 2°36.611 4.938219 3.08022 31.81206 4.91564
2004-03-08 10:46:09 51°9.33 2°36.54 4.944716 3.080957 31.810448 4.544836
2004-03-08 10:47:10 51°9.309 2°36.466 4.950096 3.081799 31.810875 4.409999
2004-03-08 10:48:10 51°9.289 2°36.392 4.945833 3.081904 31.816254 4.376289
2004-03-08 10:49:09 51°9.267 2°36.322 4.935326 3.081588 31.820169 4.612255
2004-03-08 10:50:10 51°9.243 2°36.251 4.936544 3.081062 31.8175 4.949349
2004-03-08 10:51:09 51°9.219 2°36.181 4.935478 3.080641 31.815198 5.151606
2004-03-08 10:52:09 51°9.197 2°36.109 4.937559 3.080957 31.812955 5.084187
2004-03-08 10:53:09 51°9.174 2°36.037 4.942737 3.080957 31.812955 4.949349
2004-03-08 10:54:10 51°9.15 2°35.967 4.947356 3.080956 31.809612 4.983059
2004-03-08 10:55:11 51°9.126 2°35.896 4.942483 3.081167 31.812017 4.949349
2004-03-08 10:56:10 51°9.105 2°35.827 4.947254 3.080956 31.807106 4.949349
2004-03-08 10:57:10 51°9.083 2°35.759 4.956998 3.081799 31.805864 4.780802
2004-03-08 10:58:10 51°9.061 2°35.69 4.953649 3.082114 31.806964 5.016768
2004-03-08 10:59:10 51°9.04 2°35.619 4.963798 3.082114 31.810304 4.713383
2004-03-08 11:00:09 51°9.018 2°35.552 4.958876 3.082851 31.814541 4.848221
2004-03-08 11:01:09 51°8.994 2°35.486 4.94629 3.082536 31.82096 5.286443
2004-03-08 11:02:09 51°8.97 2°35.42 4.935275 3.082009 31.821635 5.4887
2004-03-08 11:03:10 51°8.944 2°35.355 4.938625 3.08222 31.829055 5.960631
2004-03-08 11:04:10 51°8.921 2°35.293 4.933194 3.082641 31.833029 5.792084
2004-03-08 11:05:10 51°8.902 2°35.23 4.950858 3.082115 31.825345 5.690956
2004-03-08 11:06:10 51°8.888 2°35.17 4.958419 3.082009 31.811608 5.185315
2004-03-08 11:07:10 51°8.879 2°35.114 4.966842 3.082746 31.809999 4.713383
2004-03-08 11:08:09 51°8.874 2°35.059 4.963544 3.083694 31.819142 4.544836
2004-03-08 11:09:10 51°8.872 2°35.011 4.960043 3.083483 31.819245 4.443708
2004-03-08 11:10:09 51°8.898 2°34.926 4.967958 3.084431 31.83006 4.612255
2004-03-08 11:11:09 51°8.933 2°34.877 4.97293 3.0878 31.862662 4.544836
2004-03-08 11:12:10 51°8.958 2°34.854 4.990076 3.090432 31.882665 4.443708
2004-03-08 11:13:09 51°8.974 2°34.84 5.00098 3.093695 31.904846 4.578546
2004-03-08 11:14:09 51°8.997 2°34.836 5.012287 3.096222 31.923628 4.34258
2004-03-08 11:15:09 51°9.021 2°34.887 5.021616 3.100223 31.956698 4.477418
2004-03-08 11:16:10 51°8.993 2°34.95 5.014417 3.100855 31.961389 4.578546
2004-03-08 11:17:09 51°8.945 2°34.948 5.021312 3.099065 31.946003 4.679674
2004-03-08 11:18:10 51°8.899 2°34.911 5.014366 3.096643 31.916718 4.612255
2004-03-08 11:19:10 51°8.863 2°34.851 4.998191 3.094538 31.907761 4.511127
2004-03-08 11:20:10 51°8.824 2°34.79 4.987033 3.093169 31.90386 4.88193
2004-03-08 11:21:09 51°8.777 2°34.739 4.982468 3.091484 31.891333 4.983059
2004-03-08 11:22:10 51°8.733 2°34.683 4.986018 3.090748 31.885433 5.320153
2004-03-08 11:23:10 51°8.709 2°34.611 4.988757 3.089589 31.86553 4.88193
2004-03-08 11:24:10 51°8.687 2°34.536 4.983279 3.089589 31.866365 4.544836
2004-03-08 11:25:09 51°8.663 2°34.464 4.977801 3.090326 31.8823 5.353862
2004-03-08 11:26:10 51°8.633 2°34.394 4.980388 3.091379 31.895152 5.421281
2004-03-08 11:27:10 51°8.602 2°34.326 4.989112 3.091906 31.892792 5.522409
2004-03-08 11:28:10 51°8.575 2°34.255 4.997988 3.093906 31.908085 5.320153
2004-03-08 11:29:09 51°8.549 2°34.185 5.003363 3.095696 31.921808 5.421281
2004-03-08 11:30:11 51°8.521 2°34.119 5.019639 3.098117 31.941057 5.320153
2004-03-08 11:31:10 51°8.496 2°34.058 5.018878 3.10475 32.007491 6.60111
2004-03-08 11:32:10 51°8.47 2°33.992 5.007623 3.10654 32.032942 7.275298
2004-03-08 11:33:09 51°8.444 2°33.924 5.012744 3.105698 32.030048 7.882067
2004-03-08 11:34:11 51°8.416 2°33.854 5.021565 3.106961 32.035228 7.511264
2004-03-08 11:35:10 51°8.388 2°33.786 5.0315 3.108119 32.040044 7.039332
2004-03-08 11:36:10 51°8.361 2°33.719 5.037988 3.108646 32.037655 7.17417
2004-03-08 11:37:11 51°8.333 2°33.652 5.049035 3.109172 32.035268 7.039332
2004-03-08 11:38:11 51°8.306 2°33.586 5.060638 3.110014 32.03732 6.837076
2004-03-08 11:39:09 51°8.283 2°33.522 5.082774 3.111804 32.034243 6.5674
2004-03-08 11:40:09 51°8.259 2°33.456 5.059118 3.110962 32.031352 6.634819
2004-03-08 11:41:09 51°8.233 2°33.394 5.034339 3.107909 32.016674 6.702238
2004-03-08 11:42:10 51°8.207 2°33.331 5.023491 3.106435 32.018315 6.803366
2004-03-08 11:43:09 51°8.183 2°33.268 5.021768 3.104434 32.000534 6.60111
2004-03-08 11:44:09 51°8.16 2°33.202 5.039762 3.104224 31.993942 6.702238
2004-03-08 11:45:11 51°8.135 2°33.134 5.033173 3.103381 31.970101 6.162888
2004-03-08 11:46:09 51°8.112 2°33.073 5.01898 3.100644 31.958151 6.297725
2004-03-08 11:47:09 51°8.088 2°33.008 5.010411 3.098222 31.938072 5.960631
2004-03-08 11:48:10 51°8.065 2°32.942 5.020196 3.09717 31.92523 5.960631
2004-03-08 11:49:10 51°8.043 2°32.877 5.02339 3.09738 31.924285 6.061759
2004-03-08 11:50:10 51°8.021 2°32.815 5.025468 3.097696 31.926213 5.724665
2004-03-08 11:51:09 51°8.005 2°32.751 5.033933 3.097591 31.919158 5.657247
2004-03-08 11:52:11 51°7.999 2°32.681 5.05998 3.09938 31.92618 5.522409
2004-03-08 11:53:09 51°7.996 2°32.622 5.089459 3.105276 31.962411 5.185315
2004-03-08 11:54:09 51°7.996 2°32.584 5.099029 3.109487 31.991127 5.421281
2004-03-08 11:55:10 51°8 2°32.561 5.118873 3.112435 32.012134 4.91564
2004-03-08 11:56:09 51°8.005 2°32.549 5.13021 3.115383 32.03062 4.477418
2004-03-08 11:57:09 51°8.014 2°32.545 5.141039 3.117068 32.041417 4.072905
2004-03-08 11:58:10 51°8.024 2°32.541 5.139977 3.118226 32.051243 3.938067
2004-03-08 11:59:10 51°7.991 2°32.527 5.101358 3.117384 32.055053 4.511127
2004-03-08 12:00:10 51°7.958 2°32.648 5.120341 3.115384 32.057412 4.679674
2004-03-08 12:01:09 51°7.998 2°32.828 5.146858 3.118121 32.048372 4.409999
2004-03-08 12:02:10 51°7.991 2°33.077 5.114014 3.113383 31.996165 4.376289
2004-03-08 12:03:09 51°7.928 2°33.139 5.074974 3.103591 31.929866 4.747093
2004-03-08 12:04:10 51°7.891 2°33.084 5.064792 3.098643 31.897738 4.308871
2004-03-08 12:05:10 51°7.863 2°33.016 5.056129 3.098959 31.903004 4.88193
2004-03-08 12:06:10 51°7.842 2°32.942 5.0615 3.100854 31.932108 6.331435
2004-03-08 12:07:10 51°7.818 2°32.869 5.086876 3.103065 31.939742 5.792084
2004-03-08 12:08:10 51°7.791 2°32.804 5.061753 3.102328 31.926338 5.657247
2004-03-08 12:09:10 51°7.767 2°32.74 5.065603 3.101381 31.928912 6.196597
2004-03-08 12:10:10 51°7.743 2°32.673 5.076392 3.102223 31.930986 6.331435
2004-03-08 12:11:09 51°7.72 2°32.606 5.089611 3.104118 31.94421 5.960631
2004-03-08 12:12:10 51°7.701 2°32.53 5.11123 3.106118 31.947769 5.623537
2004-03-08 12:13:10 51°7.684 2°32.452 5.119734 3.108855 31.964719 5.724665
2004-03-08 12:14:10 51°7.668 2°32.376 5.136384 3.112435 31.992072 5.825794
2004-03-08 12:15:10 51°7.65 2°32.302 5.144581 3.11591 32.019048 5.556118
2004-03-08 12:16:09 51°7.632 2°32.23 5.148123 3.118121 32.040008 5.421281
2004-03-08 12:17:09 51°7.609 2°32.158 5.117254 3.118226 32.052916 5.353862
2004-03-08 12:18:09 51°7.588 2°32.093 5.094472 3.115384 32.053223 5.994341
2004-03-08 12:19:11 51°7.568 2°32.032 5.106927 3.114857 32.053094 6.365144
2004-03-08 12:20:09 51°7.552 2°31.975 5.136738 3.11612 32.044026 5.960631
2004-03-08 12:21:09 51°7.536 2°31.918 5.151209 3.117699 32.036892 5.657247
2004-03-08 12:22:09 51°7.519 2°31.863 5.134714 3.114857 32.003736 5.522409
2004-03-08 12:23:11 51°7.502 2°31.805 5.105611 3.113172 32.010484 6.061759
2004-03-08 12:24:09 51°7.485 2°31.749 5.085306 3.111698 32.019644 7.14046
2004-03-08 12:25:11 51°7.466 2°31.691 5.091434 3.110751 32.017227 7.073042
2004-03-08 12:26:10 51°7.453 2°31.63 5.102219 3.112225 32.022289 6.837076
2004-03-08 12:27:10 51°7.439 2°31.568 5.111281 3.114962 32.041729 6.634819
2004-03-08 12:28:11 51°7.42 2°31.507 5.117406 3.118858 32.081042 6.533691
2004-03-08 12:29:10 51°7.412 2°31.445 5.130463 3.121911 32.110764 6.769657
2004-03-08 12:30:09 51°7.433 2°31.383 5.149995 3.12865 32.165626 6.162888
2004-03-08 12:31:11 51°7.484 2°31.34 5.176347 3.137494 32.249439 5.623537
2004-03-08 12:32:09 51°7.551 2°31.349 5.202183 3.145707 32.320123 4.983059
2004-03-08 12:33:10 51°7.61 2°31.396 5.232808 3.154446 32.381547 4.544836
2004-03-08 12:34:11 51°7.649 2°31.451 5.229625 3.158131 32.416678 4.713383
2004-03-08 12:35:10 51°7.683 2°31.531 5.247357 3.159711 32.430406 5.387571
2004-03-08 12:36:11 51°7.718 2°31.642 5.24468 3.162343 32.450184 5.353862
2004-03-08 12:37:09 51°7.749 2°31.757 5.240032 3.162659 32.456307 4.848221
2004-03-08 12:38:09 51°7.759 2°31.873 5.230029 3.16108 32.446805 4.88193
2004-03-08 12:39:10 51°7.769 2°31.984 5.218205 3.158026 32.422234 4.91564
2004-03-08 12:40:11 51°7.787 2°32.09 5.210219 3.153709 32.379073 4.88193
2004-03-08 12:41:10 51°7.806 2°32.188 5.185904 3.145286 32.299334 5.45499
2004-03-08 12:42:09 51°7.829 2°32.282 5.164563 3.136757 32.225921 5.556118
2004-03-08 12:43:11 51°7.857 2°32.375 5.140888 3.128965 32.156629 5.758375
2004-03-08 12:44:09 51°7.885 2°32.457 5.128439 3.122648 32.104057 6.702238
2004-03-08 12:45:10 51°7.917 2°32.542 5.124239 3.120016 32.079976 6.466272
2004-03-08 12:46:10 51°7.949 2°32.625 5.125099 3.118858 32.070149 6.095469
2004-03-08 12:47:10 51°7.978 2°32.709 5.125807 3.118963 32.07386 5.758375
2004-03-08 12:48:10 51°8.008 2°32.795 5.125858 3.119068 32.07087 5.623537
2004-03-08 12:49:09 51°8.035 2°32.882 5.119886 3.119068 32.076734 5.623537
2004-03-08 12:50:10 51°8.062 2°32.972 5.12267 3.118647 32.071942 5.994341
2004-03-08 12:51:10 51°8.089 2°33.062 5.123024 3.117594 32.056612 6.331435
2004-03-08 12:52:09 51°8.118 2°33.148 5.122821 3.1177 32.060321 6.398853
2004-03-08 12:53:11 51°8.149 2°33.238 5.13021 3.117278 32.052181 6.061759
2004-03-08 12:54:10 51°8.177 2°33.323 5.130463 3.117068 32.051459 5.724665
2004-03-08 12:55:10 51°8.205 2°33.41 5.128743 3.118226 32.056264 5.522409
2004-03-08 12:56:09 51°8.235 2°33.494 5.129654 3.118331 32.06416 5.758375
2004-03-08 12:57:09 51°8.266 2°33.579 5.125656 3.119174 32.069556 5.893212
2004-03-08 12:58:09 51°8.298 2°33.666 5.119228 3.118647 32.069429 6.02805
2004-03-08 12:59:11 51°8.331 2°33.756 5.128237 3.119068 32.070033 5.589828
2004-03-08 13:00:11 51°8.362 2°33.841 5.127123 3.119805 32.076743 5.556118
2004-03-08 13:01:10 51°8.39 2°33.919 5.117608 3.11949 32.079851 5.724665
2004-03-08 13:02:11 51°8.423 2°34 5.11447 3.119911 32.086319 6.264016
2004-03-08 13:03:10 51°8.461 2°34.078 5.120999 3.120016 32.088356 6.129178
2004-03-08 13:04:09 51°8.505 2°34.161 5.115229 3.119911 32.084643 5.960631
2004-03-08 13:05:10 51°8.545 2°34.258 5.111837 3.1197 32.090629 5.960631
2004-03-08 13:06:10 51°8.574 2°34.343 5.10151 3.119385 32.096258 5.758375
2004-03-08 13:07:09 51°8.594 2°34.412 5.093662 3.118753 32.091582 5.792084
2004-03-08 13:08:11 51°8.611 2°34.476 5.088395 3.117805 32.090019 6.837076
2004-03-08 13:09:10 51°8.64 2°34.56 5.084698 3.116963 32.087138 7.039332
2004-03-08 13:10:10 51°8.701 2°34.686 5.08799 3.117279 32.088218 7.275298
2004-03-08 13:11:10 51°8.719 2°34.8 5.092143 3.117279 32.084862 7.511264
2004-03-08 13:12:11 51°8.725 2°34.893 5.093763 3.117489 32.084744 6.870785
2004-03-08 13:13:09 51°8.725 2°34.967 5.103434 3.117384 32.078513 6.264016
2004-03-08 13:14:10 51°8.725 2°35.036 5.113103 3.117595 32.074204 6.466272
2004-03-08 13:15:09 51°8.724 2°35.096 5.117051 3.117805 32.070734 7.14046
2004-03-08 13:16:11 51°8.722 2°35.156 5.115482 3.118121 32.065951 7.612392
2004-03-08 13:17:09 51°8.706 2°35.209 5.126921 3.118016 32.063078 7.511264
2004-03-08 13:18:09 51°8.674 2°35.158 5.10556 3.115383 32.044848 8.927059
2004-03-08 13:19:09 51°8.66 2°34.971 5.107636 3.115173 32.048313 9.668665
2004-03-08 13:20:10 51°8.644 2°34.742 5.114166 3.116647 32.063417 10.106888
2004-03-08 13:21:11 51°8.622 2°34.539 5.117811 3.118858 32.074338 8.118033
2004-03-08 13:22:11 51°8.613 2°34.413 5.116849 3.119068 32.079248 7.882067
2004-03-08 13:23:11 51°8.611 2°34.342 5.120544 3.117805 32.063194 7.342717
2004-03-08 13:24:09 51°8.62 2°34.317 5.110673 3.11791 32.066905 7.039332
2004-03-08 13:25:09 51°8.634 2°34.305 5.108446 3.117805 32.07241 6.331435
2004-03-08 13:26:09 51°8.65 2°34.3 5.107484 3.118647 32.079483 6.129178
2004-03-08 13:27:11 51°8.671 2°34.306 5.110926 3.11949 32.089909 6.129178
2004-03-08 13:28:10 51°8.692 2°34.318 5.108395 3.119279 32.089189 6.297725
2004-03-08 13:29:09 51°8.715 2°34.329 5.114217 3.120332 32.09782 6.466272
2004-03-08 13:30:11 51°8.743 2°34.334 5.125554 3.120648 32.096384 6.331435
2004-03-08 13:31:10 51°8.77 2°34.334 5.139724 3.122648 32.10741 5.556118
2004-03-08 13:32:11 51°8.793 2°34.332 5.144986 3.124438 32.11436 5.320153
2004-03-08 13:33:11 51°8.808 2°34.333 5.13937 3.125596 32.130049 6.02805
2004-03-08 13:34:10 51°8.814 2°34.34 5.142152 3.126228 32.141431 6.634819
2004-03-08 13:35:09 51°8.814 2°34.356 5.139724 3.127176 32.147177 6.735947
2004-03-08 13:36:10 51°8.809 2°34.386 5.14276 3.126965 32.148138 6.837076
2004-03-08 13:37:11 51°8.804 2°34.433 5.136485 3.12528 32.121426 7.983195
2004-03-08 13:38:11 51°8.799 2°34.499 5.152676 3.121069 32.071018 6.971913
2004-03-08 13:39:11 51°8.797 2°34.724 5.155256 3.120121 32.044356 5.690956
2004-03-08 13:40:09 51°8.886 2°35.074 5.120189 3.11612 32.02813 6.365144
2004-03-08 13:41:11 51°8.992 2°35.464 5.145897 3.117699 32.036056 6.769657
2004-03-08 13:42:10 51°9.09 2°35.838 5.133247 3.120332 32.060965 6.938204
2004-03-08 13:43:09 51°9.186 2°36.212 5.116849 3.118858 32.065962 7.848358
2004-03-08 13:44:10 51°9.284 2°36.6 5.108193 3.116752 32.048702 8.488836
2004-03-08 13:45:09 51°9.379 2°36.973 5.096143 3.109172 31.985024 8.927059
2004-03-08 13:46:10 51°9.477 2°37.361 5.069858 3.10317 31.926743 7.780939
2004-03-08 13:47:11 51°9.574 2°37.748 5.050252 3.098117 31.895081 7.544973
2004-03-08 13:48:10 51°9.665 2°38.125 5.053596 3.100854 31.931272 7.949486
2004-03-08 13:49:11 51°9.758 2°38.514 5.052582 3.103381 31.949189 8.85964
2004-03-08 13:50:10 51°9.849 2°38.888 5.05927 3.10496 31.96634 8.589965
2004-03-08 13:51:11 51°9.943 2°39.275 5.074518 3.108014 31.993585 9.567537
2004-03-08 13:52:10 51°10.034 2°39.651 5.080191 3.109698 32.006911 9.466409
2004-03-08 13:53:10 51°10.124 2°40.036 5.072847 3.111909 32.022879 9.769794
2004-03-08 13:54:09 51°10.212 2°40.415 5.074012 3.113278 32.046842 9.904631
2004-03-08 13:55:11 51°10.318 2°40.802 5.046147 3.111909 32.054726 10.410272
2004-03-08 13:56:10 51°10.419 2°41.168 5.023238 3.109383 32.039346 10.174306
2004-03-08 13:57:10 51°10.518 2°41.539 5.012389 3.106224 32.021786 8.893349
2004-03-08 13:58:10 51°10.614 2°41.909 5.008383 3.106645 32.030785 7.983195
2004-03-08 13:59:10 51°10.709 2°42.279 5.016749 3.107277 32.034634 7.073042
2004-03-08 14:00:09 51°10.803 2°42.643 5.014518 3.10654 32.025388 6.668529
2004-03-08 14:01:11 51°10.902 2°43.023 5.01031 3.104013 32.004117 6.061759
2004-03-08 14:02:10 51°10.994 2°43.385 5.01102 3.103171 31.995348 5.758375
2004-03-08 14:03:11 51°11.091 2°43.761 5.016597 3.102644 31.98599 5.623537
2004-03-08 14:04:11 51°11.187 2°44.131 5.003465 3.100855 31.966415 5.589828
2004-03-08 14:05:11 51°11.282 2°44.503 5.008383 3.098117 31.937709 5.623537
2004-03-08 14:06:11 51°11.378 2°44.876 5.007014 3.09559 31.908059 5.657247
2004-03-08 14:07:10 51°11.473 2°45.242 5.000118 3.093274 31.896696 5.589828
2004-03-08 14:08:09 51°11.574 2°45.605 5.002045 3.092116 31.880143 5.286443
2004-03-08 14:09:09 51°11.687 2°45.965 5.000777 3.091379 31.875081 5.387571
2004-03-08 14:10:11 51°11.805 2°46.338 5.001943 3.067164 31.599066 5.185315
2004-03-08 14:11:10 51°11.918 2°46.693 5.004986 3.064953 31.569742 4.814512
2004-03-08 14:12:09 51°12.03 2°47.048 4.999814 3.068848 31.61494 4.983059
2004-03-08 14:13:09 51°12.144 2°47.411 5.004327 3.064216 31.563004 4.814512
2004-03-08 14:14:11 51°12.263 2°47.785 4.999256 3.060952 31.521704 4.612255
2004-03-08 14:15:11 51°12.378 2°48.147 4.989315 3.058426 31.50615 4.679674
2004-03-08 14:16:11 51°12.494 2°48.507 4.993221 3.060216 31.53315 4.679674
2004-03-08 14:17:09 51°12.61 2°48.854 4.988656 3.050741 31.419458 4.511127
2004-03-08 14:18:11 51°12.736 2°49.221 4.983939 3.041792 31.325811 4.544836
2004-03-08 14:19:11 51°12.862 2°49.577 5.023238 3.051583 31.415044 4.409999
2004-03-08 14:20:10 51°12.984 2°49.931 5.037025 3.006841 30.875653 4.005486
2004-03-08 14:21:11 51°13.11 2°50.296 5.026229 3.049477 31.363134 3.870648
2004-03-08 14:22:10 51°13.23 2°50.644 4.958318 3.02758 31.168169 5.252734
2004-03-08 14:23:10 51°13.355 2°51 4.996669 3.028633 31.191602 5.016768
2004-03-08 14:24:11 51°13.484 2°51.364 5.002501 3.032001 31.18249 4.443708
2004-03-08 14:25:09 51°13.605 2°51.707 4.968922 3.008947 30.959519 4.645965
2004-03-08 14:26:11 51°13.733 2°52.073 4.951517 3.002316 30.898728 4.747093
2004-03-08 14:27:10 51°13.838 2°52.372 4.964762 2.995473 30.818517 4.645965
2004-03-08 14:28:10 51°13.951 2°52.695 4.98612 2.994315 30.793235 4.207742
2004-03-08 14:29:11 51°14.066 2°53.065 4.983076 2.997262 30.814596 4.88193
2004-03-08 14:30:10 51°14.149 2°53.438 4.945681 2.978947 30.627546 5.286443
2004-03-08 14:31:10 51°14.221 2°53.824 4.943092 2.97221 30.579948 5.657247
2004-03-08 14:32:11 51°14.28 2°54.224 5.000016 2.971157 30.533505 5.219024
2004-03-08 14:33:10 51°14.326 2°54.606 5.026381 2.965051 30.422731 7.544973
2004-03-08 14:34:11 51°14.356 2°54.976 5.028611 2.961788 30.379398 8.016905
2004-03-08 14:35:11 51°14.267 2°55.25 5.178268 2.916739 29.826014 7.74723
2004-03-08 14:36:11 51°14.155 2°55.397 5.1992 2.815286 28.597364 6.533691
2004-03-08 14:37:10 51°14.046 2°55.479 5.267609 2.742682 27.740579 6.230306
2004-03-08 14:38:09 51°13.94 2°55.556 5.369378 2.606028 26.124911 5.758375
2004-03-08 14:39:11 51°13.836 2°55.63 5.695573 0.046852 0.363099 0.061486
2004-03-08 14:40:11 51°13.75 2°55.721 5.77577 0.039889 0.307034 0.095195
2004-03-08 14:41:11 51°13.688 2°55.839 5.884974 0.036979 0.283477 0.061486
2004-03-08 14:42:11 51°13.645 2°55.942 5.91307 0.034692 0.2649 0.061486
2004-03-08 14:43:11 51°13.612 2°56.033 6.060746 0.032926 0.250428 0.061486
2004-03-08 14:44:11 51°13.594 2°56.103 6.163834 0.031575 0.239336 0.061486
2004-03-08 14:45:09 51°13.593 2°56.108 6.294186 0.029496 0.222583 0.061486
2004-03-08 14:46:11 51°13.593 2°56.108 6.433889 0.028561 0.214833 0.061486